sensor_id;sensor_type;location;lat;lon;timestamp;temperature;humidity
21261;DHT22;10788;47.930;9.766;2023-02-28T00:00:19;-2.50;99.90
21261;DHT22;10788;47.930;9.766;2023-02-28T00:02:45;-2.50;99.90
21261;DHT22;10788;47.930;9.766;2023-02-28T00:05:13;-2.50;99.90
21261;DHT22;10788;47.930;9.766;2023-02-28T00:07:39;-2.50;99.90
21261;DHT22;10788;47.930;9.766;2023-02-28T00:10:07;-2.50;99.90
21261;DHT22;10788;47.930;9.766;2023-02-28T00:12:37;-2.50;99.90
21261;DHT22;10788;47.930;9.766;2023-02-28T00:15:06;-2.60;99.90
21261;DHT22;10788;47.930;9.766;2023-02-28T00:17:32;-2.60;99.90
21261;DHT22;10788;47.930;9.766;2023-02-28T00:19:57;-2.60;99.90
21261;DHT22;10788;47.930;9.766;2023-02-28T00:22:36;-2.60;99.90
21261;DHT22;10788;47.930;9.766;2023-02-28T00:25:01;-2.60;99.90
21261;DHT22;10788;47.930;9.766;2023-02-28T00:27:27;-2.60;99.90
21261;DHT22;10788;47.930;9.766;2023-02-28T00:29:52;-2.50;99.90
21261;DHT22;10788;47.930;9.766;2023-02-28T00:32:19;-2.50;99.90
21261;DHT22;10788;47.930;9.766;2023-02-28T00:34:45;-2.60;99.90
21261;DHT22;10788;47.930;9.766;2023-02-28T00:37:11;-2.60;99.90
21261;DHT22;10788;47.930;9.766;2023-02-28T00:39:39;-2.50;99.90
21261;DHT22;10788;47.930;9.766;2023-02-28T00:42:07;-2.50;99.90
21261;DHT22;10788;47.930;9.766;2023-02-28T00:44:33;-2.60;99.90
21261;DHT22;10788;47.930;9.766;2023-02-28T00:46:59;-2.60;99.90
21261;DHT22;10788;47.930;9.766;2023-02-28T00:49:26;-2.60;99.90
21261;DHT22;10788;47.930;9.766;2023-02-28T00:51:53;-2.60;99.90
21261;DHT22;10788;47.930;9.766;2023-02-28T00:54:19;-2.60;99.90
21261;DHT22;10788;47.930;9.766;2023-02-28T00:56:45;-2.70;99.90
21261;DHT22;10788;47.930;9.766;2023-02-28T00:59:12;-2.60;99.90
21261;DHT22;10788;47.930;9.766;2023-02-28T01:01:37;-2.60;99.90
21261;DHT22;10788;47.930;9.766;2023-02-28T01:04:03;-2.60;99.90
21261;DHT22;10788;47.930;9.766;2023-02-28T01:06:30;-2.60;99.90
21261;DHT22;10788;47.930;9.766;2023-02-28T01:08:55;-2.60;99.90
21261;DHT22;10788;47.930;9.766;2023-02-28T01:11:21;-2.50;99.90
21261;DHT22;10788;47.930;9.766;2023-02-28T01:13:46;-2.60;99.90
21261;DHT22;10788;47.930;9.766;2023-02-28T01:16:13;-2.60;99.90
21261;DHT22;10788;47.930;9.766;2023-02-28T01:18:39;-2.60;99.90
21261;DHT22;10788;47.930;9.766;2023-02-28T01:21:13;-2.70;99.90
21261;DHT22;10788;47.930;9.766;2023-02-28T01:23:40;-2.70;99.90
21261;DHT22;10788;47.930;9.766;2023-02-28T01:26:10;-2.60;99.90
21261;DHT22;10788;47.930;9.766;2023-02-28T01:28:36;-2.60;99.90
21261;DHT22;10788;47.930;9.766;2023-02-28T01:31:02;-2.60;99.90
21261;DHT22;10788;47.930;9.766;2023-02-28T01:33:28;-2.50;99.90
21261;DHT22;10788;47.930;9.766;2023-02-28T01:38:29;-2.60;99.90
21261;DHT22;10788;47.930;9.766;2023-02-28T01:40:54;-2.60;99.90
21261;DHT22;10788;47.930;9.766;2023-02-28T01:43:27;-2.60;99.90
21261;DHT22;10788;47.930;9.766;2023-02-28T01:45:53;-2.60;99.90
21261;DHT22;10788;47.930;9.766;2023-02-28T01:48:25;-2.50;99.90
21261;DHT22;10788;47.930;9.766;2023-02-28T01:50:51;-2.50;99.90
21261;DHT22;10788;47.930;9.766;2023-02-28T01:53:21;-2.40;99.90
21261;DHT22;10788;47.930;9.766;2023-02-28T01:55:50;-2.50;99.90
21261;DHT22;10788;47.930;9.766;2023-02-28T01:58:17;-2.50;99.90
21261;DHT22;10788;47.930;9.766;2023-02-28T02:00:43;-2.50;99.90
21261;DHT22;10788;47.930;9.766;2023-02-28T02:03:12;-2.50;99.90
21261;DHT22;10788;47.930;9.766;2023-02-28T02:05:39;-2.50;99.90
21261;DHT22;10788;47.930;9.766;2023-02-28T02:08:08;-2.50;99.90
21261;DHT22;10788;47.930;9.766;2023-02-28T02:10:55;-2.50;99.90
21261;DHT22;10788;47.930;9.766;2023-02-28T02:13:57;-2.50;99.90
21261;DHT22;10788;47.930;9.766;2023-02-28T02:17:02;-2.60;99.90
21261;DHT22;10788;47.930;9.766;2023-02-28T02:20:50;-2.50;99.90
21261;DHT22;10788;47.930;9.766;2023-02-28T02:23:23;-2.60;99.90
21261;DHT22;10788;47.930;9.766;2023-02-28T02:42:58;-2.50;99.90
21261;DHT22;10788;47.930;9.766;2023-02-28T02:45:45;-2.60;99.90
21261;DHT22;10788;47.930;9.766;2023-02-28T02:48:13;-2.50;99.90
21261;DHT22;10788;47.930;9.766;2023-02-28T02:50:55;-2.50;99.90
21261;DHT22;10788;47.930;9.766;2023-02-28T02:53:27;-2.50;99.90
21261;DHT22;10788;47.930;9.766;2023-02-28T02:55:55;-2.60;99.90
21261;DHT22;10788;47.930;9.766;2023-02-28T02:58:26;-2.60;99.90
21261;DHT22;10788;47.930;9.766;2023-02-28T03:00:57;-2.50;99.90
21261;DHT22;10788;47.930;9.766;2023-02-28T03:03:25;-2.60;99.90
21261;DHT22;10788;47.930;9.766;2023-02-28T03:05:57;-2.60;99.90
21261;DHT22;10788;47.930;9.766;2023-02-28T03:08:23;-2.50;99.90
21261;DHT22;10788;47.930;9.766;2023-02-28T03:10:51;-2.50;99.90
21261;DHT22;10788;47.930;9.766;2023-02-28T03:18:40;-2.50;99.90
21261;DHT22;10788;47.930;9.766;2023-02-28T03:24:11;-2.70;99.90
21261;DHT22;10788;47.930;9.766;2023-02-28T03:26:49;-2.60;99.90
21261;DHT22;10788;47.930;9.766;2023-02-28T03:29:40;-2.60;99.90
21261;DHT22;10788;47.930;9.766;2023-02-28T03:32:21;-2.70;99.90
21261;DHT22;10788;47.930;9.766;2023-02-28T03:34:56;-2.70;99.90
21261;DHT22;10788;47.930;9.766;2023-02-28T03:37:25;-2.60;99.90
21261;DHT22;10788;47.930;9.766;2023-02-28T03:40:02;-2.60;99.90
21261;DHT22;10788;47.930;9.766;2023-02-28T03:42:33;-2.50;99.90
21261;DHT22;10788;47.930;9.766;2023-02-28T03:45:04;-2.50;99.90
21261;DHT22;10788;47.930;9.766;2023-02-28T03:47:39;-2.50;99.90
21261;DHT22;10788;47.930;9.766;2023-02-28T03:50:42;-2.60;99.90
21261;DHT22;10788;47.930;9.766;2023-02-28T03:53:13;-2.70;99.90
21261;DHT22;10788;47.930;9.766;2023-02-28T03:55:44;-2.70;99.90
21261;DHT22;10788;47.930;9.766;2023-02-28T03:58:31;-2.70;99.90
21261;DHT22;10788;47.930;9.766;2023-02-28T04:01:14;-2.70;99.90
21261;DHT22;10788;47.930;9.766;2023-02-28T04:03:40;-2.80;99.90
21261;DHT22;10788;47.930;9.766;2023-02-28T04:06:12;-2.80;99.90
21261;DHT22;10788;47.930;9.766;2023-02-28T04:08:39;-2.80;99.90
21261;DHT22;10788;47.930;9.766;2023-02-28T04:11:15;-2.70;99.90
21261;DHT22;10788;47.930;9.766;2023-02-28T04:13:41;-2.60;99.90
21261;DHT22;10788;47.930;9.766;2023-02-28T04:16:08;-2.70;99.90
21261;DHT22;10788;47.930;9.766;2023-02-28T04:18:40;-2.70;99.90
21261;DHT22;10788;47.930;9.766;2023-02-28T04:21:09;-2.70;99.90
21261;DHT22;10788;47.930;9.766;2023-02-28T04:23:34;-2.60;99.90
21261;DHT22;10788;47.930;9.766;2023-02-28T04:26:00;-2.70;99.90
21261;DHT22;10788;47.930;9.766;2023-02-28T04:28:26;-2.70;99.90
21261;DHT22;10788;47.930;9.766;2023-02-28T04:33:21;-2.70;99.90
21261;DHT22;10788;47.930;9.766;2023-02-28T04:35:47;-2.60;99.90
21261;DHT22;10788;47.930;9.766;2023-02-28T04:38:12;-2.70;99.90
21261;DHT22;10788;47.930;9.766;2023-02-28T04:40:38;-2.70;99.90
21261;DHT22;10788;47.930;9.766;2023-02-28T04:43:03;-2.70;99.90
21261;DHT22;10788;47.930;9.766;2023-02-28T04:45:29;-2.80;99.90
21261;DHT22;10788;47.930;9.766;2023-02-28T04:47:57;-2.70;99.90
21261;DHT22;10788;47.930;9.766;2023-02-28T04:50:23;-2.80;99.90
21261;DHT22;10788;47.930;9.766;2023-02-28T04:52:49;-2.80;99.90
21261;DHT22;10788;47.930;9.766;2023-02-28T04:55:14;-2.70;99.90
21261;DHT22;10788;47.930;9.766;2023-02-28T04:57:40;-2.80;99.90
21261;DHT22;10788;47.930;9.766;2023-02-28T05:00:09;-2.90;99.90
21261;DHT22;10788;47.930;9.766;2023-02-28T05:02:37;-2.90;99.90
21261;DHT22;10788;47.930;9.766;2023-02-28T05:05:03;-2.80;99.90
21261;DHT22;10788;47.930;9.766;2023-02-28T05:07:28;-2.80;99.90
21261;DHT22;10788;47.930;9.766;2023-02-28T05:09:54;-2.80;99.90
21261;DHT22;10788;47.930;9.766;2023-02-28T05:12:20;-2.80;99.90
21261;DHT22;10788;47.930;9.766;2023-02-28T05:14:45;-2.90;99.90
21261;DHT22;10788;47.930;9.766;2023-02-28T05:17:11;-2.90;99.90
21261;DHT22;10788;47.930;9.766;2023-02-28T05:19:36;-2.80;99.90
21261;DHT22;10788;47.930;9.766;2023-02-28T05:22:02;-2.90;99.90
21261;DHT22;10788;47.930;9.766;2023-02-28T05:24:28;-2.80;99.90
21261;DHT22;10788;47.930;9.766;2023-02-28T05:26:54;-2.80;99.90
21261;DHT22;10788;47.930;9.766;2023-02-28T05:29:20;-2.80;99.90
21261;DHT22;10788;47.930;9.766;2023-02-28T05:31:46;-3.00;99.90
21261;DHT22;10788;47.930;9.766;2023-02-28T05:34:12;-2.90;99.90
21261;DHT22;10788;47.930;9.766;2023-02-28T05:36:38;-2.90;99.90
21261;DHT22;10788;47.930;9.766;2023-02-28T05:39:05;-3.00;99.90
21261;DHT22;10788;47.930;9.766;2023-02-28T05:41:31;-3.00;99.90
21261;DHT22;10788;47.930;9.766;2023-02-28T05:43:57;-3.00;99.90
21261;DHT22;10788;47.930;9.766;2023-02-28T05:46:25;-3.00;99.90
21261;DHT22;10788;47.930;9.766;2023-02-28T05:48:50;-2.90;99.90
21261;DHT22;10788;47.930;9.766;2023-02-28T05:51:16;-3.00;99.90
21261;DHT22;10788;47.930;9.766;2023-02-28T05:53:42;-3.00;99.90
21261;DHT22;10788;47.930;9.766;2023-02-28T05:56:08;-3.00;99.90
21261;DHT22;10788;47.930;9.766;2023-02-28T05:58:33;-3.00;99.90
21261;DHT22;10788;47.930;9.766;2023-02-28T06:01:18;-3.00;99.90
21261;DHT22;10788;47.930;9.766;2023-02-28T06:03:44;-3.00;99.90
21261;DHT22;10788;47.930;9.766;2023-02-28T06:06:09;-3.10;99.90
21261;DHT22;10788;47.930;9.766;2023-02-28T06:08:35;-3.00;99.90
21261;DHT22;10788;47.930;9.766;2023-02-28T06:11:03;-3.00;99.90
21261;DHT22;10788;47.930;9.766;2023-02-28T06:13:29;-3.00;99.90
21261;DHT22;10788;47.930;9.766;2023-02-28T06:15:55;-2.90;99.90
21261;DHT22;10788;47.930;9.766;2023-02-28T06:18:20;-2.90;99.90
21261;DHT22;10788;47.930;9.766;2023-02-28T06:20:55;-3.00;99.90
21261;DHT22;10788;47.930;9.766;2023-02-28T06:23:21;-3.00;99.90
21261;DHT22;10788;47.930;9.766;2023-02-28T06:25:47;-3.00;99.90
21261;DHT22;10788;47.930;9.766;2023-02-28T06:28:13;-2.90;99.90
21261;DHT22;10788;47.930;9.766;2023-02-28T06:30:39;-3.00;99.90
21261;DHT22;10788;47.930;9.766;2023-02-28T06:33:05;-3.00;99.90
21261;DHT22;10788;47.930;9.766;2023-02-28T06:35:30;-2.90;99.90
21261;DHT22;10788;47.930;9.766;2023-02-28T06:37:56;-3.00;99.90
21261;DHT22;10788;47.930;9.766;2023-02-28T06:40:22;-3.00;99.90
21261;DHT22;10788;47.930;9.766;2023-02-28T06:42:47;-3.00;99.90
21261;DHT22;10788;47.930;9.766;2023-02-28T06:45:13;-3.00;99.90
21261;DHT22;10788;47.930;9.766;2023-02-28T06:47:40;-3.00;99.90
21261;DHT22;10788;47.930;9.766;2023-02-28T06:50:11;-3.10;99.90
21261;DHT22;10788;47.930;9.766;2023-02-28T06:52:37;-3.20;99.90
21261;DHT22;10788;47.930;9.766;2023-02-28T06:55:06;-3.20;99.90
21261;DHT22;10788;47.930;9.766;2023-02-28T06:57:34;-3.10;99.90
21261;DHT22;10788;47.930;9.766;2023-02-28T07:00:02;-3.10;99.90
21261;DHT22;10788;47.930;9.766;2023-02-28T07:02:28;-3.10;99.90
21261;DHT22;10788;47.930;9.766;2023-02-28T07:04:54;-3.20;99.90
21261;DHT22;10788;47.930;9.766;2023-02-28T07:07:20;-3.20;99.90
21261;DHT22;10788;47.930;9.766;2023-02-28T07:09:46;-3.10;99.90
21261;DHT22;10788;47.930;9.766;2023-02-28T07:12:11;-3.10;99.90
21261;DHT22;10788;47.930;9.766;2023-02-28T07:14:37;-3.10;99.90
21261;DHT22;10788;47.930;9.766;2023-02-28T07:17:03;-3.10;99.90
21261;DHT22;10788;47.930;9.766;2023-02-28T07:19:29;-3.00;99.90
21261;DHT22;10788;47.930;9.766;2023-02-28T07:21:54;-3.00;99.90
21261;DHT22;10788;47.930;9.766;2023-02-28T07:24:20;-2.90;99.90
21261;DHT22;10788;47.930;9.766;2023-02-28T07:26:46;-2.90;99.90
21261;DHT22;10788;47.930;9.766;2023-02-28T07:29:11;-3.10;99.90
21261;DHT22;10788;47.930;9.766;2023-02-28T07:31:37;-3.00;99.90
21261;DHT22;10788;47.930;9.766;2023-02-28T07:34:03;-3.00;99.90
21261;DHT22;10788;47.930;9.766;2023-02-28T07:36:28;-3.00;99.90
21261;DHT22;10788;47.930;9.766;2023-02-28T07:38:54;-3.00;99.90
21261;DHT22;10788;47.930;9.766;2023-02-28T07:41:21;-3.00;99.90
21261;DHT22;10788;47.930;9.766;2023-02-28T07:43:48;-3.00;99.90
21261;DHT22;10788;47.930;9.766;2023-02-28T07:46:15;-3.00;99.90
21261;DHT22;10788;47.930;9.766;2023-02-28T07:48:42;-3.10;99.90
21261;DHT22;10788;47.930;9.766;2023-02-28T07:51:07;-3.10;99.90
21261;DHT22;10788;47.930;9.766;2023-02-28T07:53:33;-3.10;99.90
21261;DHT22;10788;47.930;9.766;2023-02-28T07:56:01;-3.00;99.90
21261;DHT22;10788;47.930;9.766;2023-02-28T07:58:28;-3.00;99.90
21261;DHT22;10788;47.930;9.766;2023-02-28T08:00:54;-3.00;99.90
21261;DHT22;10788;47.930;9.766;2023-02-28T08:03:21;-2.90;99.90
21261;DHT22;10788;47.930;9.766;2023-02-28T08:05:47;-3.00;99.90
21261;DHT22;10788;47.930;9.766;2023-02-28T08:08:14;-2.90;99.90
21261;DHT22;10788;47.930;9.766;2023-02-28T08:10:40;-2.90;99.90
21261;DHT22;10788;47.930;9.766;2023-02-28T08:13:05;-2.90;99.90
21261;DHT22;10788;47.930;9.766;2023-02-28T08:15:31;-2.90;99.90
21261;DHT22;10788;47.930;9.766;2023-02-28T08:17:57;-2.80;99.90
21261;DHT22;10788;47.930;9.766;2023-02-28T08:20:24;-2.70;99.90
21261;DHT22;10788;47.930;9.766;2023-02-28T08:22:49;-2.70;99.90
21261;DHT22;10788;47.930;9.766;2023-02-28T08:25:15;-2.80;99.90
21261;DHT22;10788;47.930;9.766;2023-02-28T08:27:41;-2.80;99.90
21261;DHT22;10788;47.930;9.766;2023-02-28T08:30:07;-2.90;99.90
21261;DHT22;10788;47.930;9.766;2023-02-28T08:32:35;-3.00;99.90
21261;DHT22;10788;47.930;9.766;2023-02-28T08:35:00;-3.00;99.90
21261;DHT22;10788;47.930;9.766;2023-02-28T08:37:27;-2.90;99.90
21261;DHT22;10788;47.930;9.766;2023-02-28T08:39:52;-2.80;99.90
21261;DHT22;10788;47.930;9.766;2023-02-28T08:42:18;-2.90;99.90
21261;DHT22;10788;47.930;9.766;2023-02-28T08:44:43;-2.90;99.90
21261;DHT22;10788;47.930;9.766;2023-02-28T08:47:09;-2.80;99.90
21261;DHT22;10788;47.930;9.766;2023-02-28T08:49:35;-2.80;99.90
21261;DHT22;10788;47.930;9.766;2023-02-28T08:52:00;-2.80;99.90
21261;DHT22;10788;47.930;9.766;2023-02-28T08:54:26;-2.70;99.90
21261;DHT22;10788;47.930;9.766;2023-02-28T08:56:54;-2.70;99.90
21261;DHT22;10788;47.930;9.766;2023-02-28T08:59:19;-2.80;99.90
21261;DHT22;10788;47.930;9.766;2023-02-28T09:01:45;-2.60;99.90
21261;DHT22;10788;47.930;9.766;2023-02-28T09:04:10;-2.60;99.90
21261;DHT22;10788;47.930;9.766;2023-02-28T09:06:37;-2.50;99.90
21261;DHT22;10788;47.930;9.766;2023-02-28T09:09:03;-2.50;99.90
21261;DHT22;10788;47.930;9.766;2023-02-28T09:11:31;-2.50;99.90
21261;DHT22;10788;47.930;9.766;2023-02-28T09:13:57;-2.50;99.90
21261;DHT22;10788;47.930;9.766;2023-02-28T09:16:24;-2.40;99.90
21261;DHT22;10788;47.930;9.766;2023-02-28T09:18:50;-2.30;99.90
21261;DHT22;10788;47.930;9.766;2023-02-28T09:21:17;-2.30;99.90
21261;DHT22;10788;47.930;9.766;2023-02-28T09:23:44;-2.30;99.90
21261;DHT22;10788;47.930;9.766;2023-02-28T09:26:25;-2.30;99.90
21261;DHT22;10788;47.930;9.766;2023-02-28T09:28:52;-2.30;99.90
21261;DHT22;10788;47.930;9.766;2023-02-28T09:31:21;-2.20;99.90
21261;DHT22;10788;47.930;9.766;2023-02-28T09:33:49;-2.10;99.90
21261;DHT22;10788;47.930;9.766;2023-02-28T09:36:15;-2.10;99.90
21261;DHT22;10788;47.930;9.766;2023-02-28T09:38:41;-2.20;99.90
21261;DHT22;10788;47.930;9.766;2023-02-28T09:41:16;-2.20;99.90
21261;DHT22;10788;47.930;9.766;2023-02-28T09:43:47;-2.30;99.90
21261;DHT22;10788;47.930;9.766;2023-02-28T09:46:33;-2.30;99.90
21261;DHT22;10788;47.930;9.766;2023-02-28T09:49:05;-2.20;99.90
21261;DHT22;10788;47.930;9.766;2023-02-28T09:51:47;-2.20;99.90
21261;DHT22;10788;47.930;9.766;2023-02-28T09:54:21;-2.10;99.90
21261;DHT22;10788;47.930;9.766;2023-02-28T09:57:08;-2.20;99.90
21261;DHT22;10788;47.930;9.766;2023-02-28T10:02:53;-2.00;99.90
21261;DHT22;10788;47.930;9.766;2023-02-28T10:05:24;-2.00;99.90
21261;DHT22;10788;47.930;9.766;2023-02-28T10:13:00;-1.90;99.90
21261;DHT22;10788;47.930;9.766;2023-02-28T10:15:30;-1.80;99.90
21261;DHT22;10788;47.930;9.766;2023-02-28T10:18:03;-1.80;99.90
21261;DHT22;10788;47.930;9.766;2023-02-28T10:20:33;-1.80;99.90
21261;DHT22;10788;47.930;9.766;2023-02-28T10:23:20;-1.80;99.90
21261;DHT22;10788;47.930;9.766;2023-02-28T10:26:03;-1.80;99.90
21261;DHT22;10788;47.930;9.766;2023-02-28T10:28:31;-1.70;99.90
21261;DHT22;10788;47.930;9.766;2023-02-28T10:30:57;-1.80;99.90
21261;DHT22;10788;47.930;9.766;2023-02-28T10:35:51;-1.70;99.90
21261;DHT22;10788;47.930;9.766;2023-02-28T10:38:27;-1.50;99.90
21261;DHT22;10788;47.930;9.766;2023-02-28T10:41:08;-1.50;99.90
21261;DHT22;10788;47.930;9.766;2023-02-28T10:43:34;-1.40;99.90
21261;DHT22;10788;47.930;9.766;2023-02-28T10:46:11;-1.50;99.90
21261;DHT22;10788;47.930;9.766;2023-02-28T10:49:14;-1.50;99.90
21261;DHT22;10788;47.930;9.766;2023-02-28T10:51:39;-1.50;99.90
21261;DHT22;10788;47.930;9.766;2023-02-28T10:54:13;-1.50;99.90
21261;DHT22;10788;47.930;9.766;2023-02-28T10:56:39;-1.40;99.90
21261;DHT22;10788;47.930;9.766;2023-02-28T11:01:41;-1.30;99.90
21261;DHT22;10788;47.930;9.766;2023-02-28T11:04:41;-1.30;99.90
21261;DHT22;10788;47.930;9.766;2023-02-28T11:07:17;-1.20;99.90
21261;DHT22;10788;47.930;9.766;2023-02-28T11:09:49;-1.10;99.90
21261;DHT22;10788;47.930;9.766;2023-02-28T11:12:37;-1.20;99.90
21261;DHT22;10788;47.930;9.766;2023-02-28T11:15:07;-1.10;99.90
21261;DHT22;10788;47.930;9.766;2023-02-28T11:17:44;-1.10;99.90
21261;DHT22;10788;47.930;9.766;2023-02-28T11:20:18;-1.00;99.90
21261;DHT22;10788;47.930;9.766;2023-02-28T11:22:46;-0.90;99.90
21261;DHT22;10788;47.930;9.766;2023-02-28T11:27:49;-0.90;99.90
21261;DHT22;10788;47.930;9.766;2023-02-28T11:30:37;-1.00;99.90
21261;DHT22;10788;47.930;9.766;2023-02-28T11:33:26;-1.10;99.90
21261;DHT22;10788;47.930;9.766;2023-02-28T11:35:53;-0.90;99.90
21261;DHT22;10788;47.930;9.766;2023-02-28T11:38:21;-0.90;99.90
21261;DHT22;10788;47.930;9.766;2023-02-28T11:43:53;-0.90;99.90
21261;DHT22;10788;47.930;9.766;2023-02-28T11:46:31;-0.90;99.90
21261;DHT22;10788;47.930;9.766;2023-02-28T11:52:30;-0.80;99.90
21261;DHT22;10788;47.930;9.766;2023-02-28T11:55:20;-0.70;99.90
21261;DHT22;10788;47.930;9.766;2023-02-28T11:58:04;-0.60;99.90
21261;DHT22;10788;47.930;9.766;2023-02-28T12:03:27;-0.80;99.90
21261;DHT22;10788;47.930;9.766;2023-02-28T12:06:15;-0.70;99.90
21261;DHT22;10788;47.930;9.766;2023-02-28T12:08:53;-0.70;99.90
21261;DHT22;10788;47.930;9.766;2023-02-28T12:22:26;-0.50;99.90
21261;DHT22;10788;47.930;9.766;2023-02-28T12:27:30;-0.60;99.90
21261;DHT22;10788;47.930;9.766;2023-02-28T12:37:34;-0.50;99.90
21261;DHT22;10788;47.930;9.766;2023-02-28T12:40:11;-0.50;99.90
21261;DHT22;10788;47.930;9.766;2023-02-28T12:42:40;-0.60;99.90
21261;DHT22;10788;47.930;9.766;2023-02-28T12:45:13;-0.50;99.90
21261;DHT22;10788;47.930;9.766;2023-02-28T12:47:44;-0.50;99.90
21261;DHT22;10788;47.930;9.766;2023-02-28T12:50:12;-0.30;99.90
21261;DHT22;10788;47.930;9.766;2023-02-28T12:52:41;-0.30;99.90
21261;DHT22;10788;47.930;9.766;2023-02-28T12:55:20;-0.40;99.90
21261;DHT22;10788;47.930;9.766;2023-02-28T12:57:52;-0.30;99.90
21261;DHT22;10788;47.930;9.766;2023-02-28T13:00:25;-0.40;99.90
21261;DHT22;10788;47.930;9.766;2023-02-28T13:11:25;-0.30;99.90
21261;DHT22;10788;47.930;9.766;2023-02-28T13:14:02;-0.40;99.90
21261;DHT22;10788;47.930;9.766;2023-02-28T13:17:27;-0.30;99.90
21261;DHT22;10788;47.930;9.766;2023-02-28T13:19:33;-0.30;99.90
21261;DHT22;10788;47.930;9.766;2023-02-28T13:22:00;-0.50;99.90
21261;DHT22;10788;47.930;9.766;2023-02-28T13:29:38;-0.70;99.90
21261;DHT22;10788;47.930;9.766;2023-02-28T13:34:36;-0.60;99.90
21261;DHT22;10788;47.930;9.766;2023-02-28T13:37:32;-0.60;99.90
21261;DHT22;10788;47.930;9.766;2023-02-28T13:42:47;-0.60;99.90
21261;DHT22;10788;47.930;9.766;2023-02-28T13:45:28;-0.50;99.90
21261;DHT22;10788;47.930;9.766;2023-02-28T13:48:16;-0.40;99.90
21261;DHT22;10788;47.930;9.766;2023-02-28T13:50:44;-0.40;99.90
21261;DHT22;10788;47.930;9.766;2023-02-28T13:55:57;-0.40;99.90
21261;DHT22;10788;47.930;9.766;2023-02-28T13:58:54;-0.40;99.90
21261;DHT22;10788;47.930;9.766;2023-02-28T14:01:36;-0.40;99.90
21261;DHT22;10788;47.930;9.766;2023-02-28T14:06:53;-0.50;99.90
21261;DHT22;10788;47.930;9.766;2023-02-28T14:09:38;-0.40;99.90
21261;DHT22;10788;47.930;9.766;2023-02-28T14:15:45;-0.20;99.90
21261;DHT22;10788;47.930;9.766;2023-02-28T14:18:20;-0.10;99.90
21261;DHT22;10788;47.930;9.766;2023-02-28T14:20:48;-0.10;99.90
21261;DHT22;10788;47.930;9.766;2023-02-28T14:28:47;-0.20;99.90
21261;DHT22;10788;47.930;9.766;2023-02-28T14:31:29;-0.20;99.90
21261;DHT22;10788;47.930;9.766;2023-02-28T14:34:11;-0.20;99.90
21261;DHT22;10788;47.930;9.766;2023-02-28T14:36:42;-0.10;99.90
21261;DHT22;10788;47.930;9.766;2023-02-28T14:39:21;0.00;99.90
21261;DHT22;10788;47.930;9.766;2023-02-28T14:41:48;0.00;99.90
21261;DHT22;10788;47.930;9.766;2023-02-28T14:46:45;0.20;99.90
21261;DHT22;10788;47.930;9.766;2023-02-28T14:49:36;0.30;99.90
21261;DHT22;10788;47.930;9.766;2023-02-28T14:54:37;0.30;99.90
21261;DHT22;10788;47.930;9.766;2023-02-28T14:57:03;0.40;99.90
21261;DHT22;10788;47.930;9.766;2023-02-28T14:59:34;0.30;99.90
21261;DHT22;10788;47.930;9.766;2023-02-28T15:04:53;0.60;99.90
21261;DHT22;10788;47.930;9.766;2023-02-28T15:07:19;0.80;99.90
21261;DHT22;10788;47.930;9.766;2023-02-28T15:09:45;0.80;99.90
21261;DHT22;10788;47.930;9.766;2023-02-28T15:12:14;0.90;99.90
21261;DHT22;10788;47.930;9.766;2023-02-28T15:14:43;1.10;99.90
21261;DHT22;10788;47.930;9.766;2023-02-28T15:17:16;0.90;99.90
21261;DHT22;10788;47.930;9.766;2023-02-28T15:19:48;1.10;99.90
21261;DHT22;10788;47.930;9.766;2023-02-28T15:22:20;1.10;99.90
21261;DHT22;10788;47.930;9.766;2023-02-28T15:24:50;0.90;99.90
21261;DHT22;10788;47.930;9.766;2023-02-28T15:27:23;0.80;99.90
21261;DHT22;10788;47.930;9.766;2023-02-28T15:29:54;0.80;99.90
21261;DHT22;10788;47.930;9.766;2023-02-28T15:32:43;0.90;99.90
21261;DHT22;10788;47.930;9.766;2023-02-28T15:37:47;0.90;99.90
21261;DHT22;10788;47.930;9.766;2023-02-28T15:40:33;1.00;99.90
21261;DHT22;10788;47.930;9.766;2023-02-28T15:45:58;0.60;99.90
21261;DHT22;10788;47.930;9.766;2023-02-28T15:50:57;0.70;99.90
21261;DHT22;10788;47.930;9.766;2023-02-28T15:53:30;0.80;99.90
21261;DHT22;10788;47.930;9.766;2023-02-28T15:56:35;0.60;99.90
21261;DHT22;10788;47.930;9.766;2023-02-28T15:59:00;0.70;99.90
21261;DHT22;10788;47.930;9.766;2023-02-28T16:01:34;0.60;99.90
21261;DHT22;10788;47.930;9.766;2023-02-28T16:04:11;0.60;99.90
21261;DHT22;10788;47.930;9.766;2023-02-28T16:06:42;0.60;99.90
21261;DHT22;10788;47.930;9.766;2023-02-28T16:09:17;0.60;99.90
21261;DHT22;10788;47.930;9.766;2023-02-28T16:11:48;0.60;99.90
21261;DHT22;10788;47.930;9.766;2023-02-28T16:14:24;0.70;99.90
21261;DHT22;10788;47.930;9.766;2023-02-28T16:16:53;0.50;99.90
21261;DHT22;10788;47.930;9.766;2023-02-28T16:19:19;0.40;99.90
21261;DHT22;10788;47.930;9.766;2023-02-28T16:21:46;0.40;99.90
21261;DHT22;10788;47.930;9.766;2023-02-28T16:24:11;0.40;99.90
21261;DHT22;10788;47.930;9.766;2023-02-28T16:26:42;0.40;99.90
21261;DHT22;10788;47.930;9.766;2023-02-28T16:29:15;0.40;99.90
21261;DHT22;10788;47.930;9.766;2023-02-28T16:31:43;0.40;99.90
21261;DHT22;10788;47.930;9.766;2023-02-28T16:34:09;0.30;99.90
21261;DHT22;10788;47.930;9.766;2023-02-28T16:36:34;0.20;99.90
21261;DHT22;10788;47.930;9.766;2023-02-28T16:39:00;0.20;99.90
21261;DHT22;10788;47.930;9.766;2023-02-28T16:41:28;0.30;99.90
21261;DHT22;10788;47.930;9.766;2023-02-28T16:43:55;0.30;99.90
21261;DHT22;10788;47.930;9.766;2023-02-28T16:46:30;0.40;99.90
21261;DHT22;10788;47.930;9.766;2023-02-28T16:48:56;0.30;99.90
21261;DHT22;10788;47.930;9.766;2023-02-28T16:51:22;0.20;99.90
21261;DHT22;10788;47.930;9.766;2023-02-28T16:53:48;0.20;99.90
21261;DHT22;10788;47.930;9.766;2023-02-28T16:56:20;0.10;99.90
21261;DHT22;10788;47.930;9.766;2023-02-28T16:58:48;0.10;99.90
21261;DHT22;10788;47.930;9.766;2023-02-28T17:01:15;0.00;99.90
21261;DHT22;10788;47.930;9.766;2023-02-28T17:03:41;0.10;99.90
21261;DHT22;10788;47.930;9.766;2023-02-28T17:06:23;0.00;99.90
21261;DHT22;10788;47.930;9.766;2023-02-28T17:08:50;0.10;99.90
21261;DHT22;10788;47.930;9.766;2023-02-28T17:11:16;0.00;99.90
21261;DHT22;10788;47.930;9.766;2023-02-28T17:13:42;-0.20;99.90
21261;DHT22;10788;47.930;9.766;2023-02-28T17:16:35;-0.20;99.90
21261;DHT22;10788;47.930;9.766;2023-02-28T17:19:03;-0.20;99.90
21261;DHT22;10788;47.930;9.766;2023-02-28T17:21:30;-0.30;99.90
21261;DHT22;10788;47.930;9.766;2023-02-28T17:23:57;-0.40;99.90
21261;DHT22;10788;47.930;9.766;2023-02-28T17:26:22;-0.30;99.90
21261;DHT22;10788;47.930;9.766;2023-02-28T17:28:53;-0.30;99.90
21261;DHT22;10788;47.930;9.766;2023-02-28T17:31:22;-0.40;99.90
21261;DHT22;10788;47.930;9.766;2023-02-28T17:33:48;-0.40;99.90
21261;DHT22;10788;47.930;9.766;2023-02-28T17:36:15;-0.60;99.90
21261;DHT22;10788;47.930;9.766;2023-02-28T17:38:41;-0.60;99.90
21261;DHT22;10788;47.930;9.766;2023-02-28T17:41:09;-0.70;99.90
21261;DHT22;10788;47.930;9.766;2023-02-28T17:43:35;-0.60;99.90
21261;DHT22;10788;47.930;9.766;2023-02-28T17:46:00;-0.60;99.90
21261;DHT22;10788;47.930;9.766;2023-02-28T17:48:26;-0.60;99.90
21261;DHT22;10788;47.930;9.766;2023-02-28T17:50:53;-0.50;99.90
21261;DHT22;10788;47.930;9.766;2023-02-28T17:53:19;-0.60;99.90
21261;DHT22;10788;47.930;9.766;2023-02-28T17:55:48;-0.60;99.90
21261;DHT22;10788;47.930;9.766;2023-02-28T17:58:14;-0.50;99.90